sensor_id;sensor_type;location;lat;lon;timestamp;P1;durP1;ratioP1;P2;durP2;ratioP2
13435;SDS011;6790;49.520;8.504;2022-12-18T00:01:16;9.90;;;5.07;;
13435;SDS011;6790;49.520;8.504;2022-12-18T00:03:45;9.13;;;5.73;;
13435;SDS011;6790;49.520;8.504;2022-12-18T00:06:11;11.13;;;5.27;;
13435;SDS011;6790;49.520;8.504;2022-12-18T00:08:38;5.77;;;5.03;;
13435;SDS011;6790;49.520;8.504;2022-12-18T00:11:06;16.10;;;8.00;;
13435;SDS011;6790;49.520;8.504;2022-12-18T00:13:34;6.50;;;5.77;;
13435;SDS011;6790;49.520;8.504;2022-12-18T00:16:03;8.80;;;4.37;;
13435;SDS011;6790;49.520;8.504;2022-12-18T00:18:32;8.73;;;3.83;;
13435;SDS011;6790;49.520;8.504;2022-12-18T00:21:01;7.73;;;4.10;;
13435;SDS011;6790;49.520;8.504;2022-12-18T00:23:30;8.57;;;4.13;;
13435;SDS011;6790;49.520;8.504;2022-12-18T00:26:01;15.40;;;8.70;;
13435;SDS011;6790;49.520;8.504;2022-12-18T00:28:30;9.33;;;5.63;;
13435;SDS011;6790;49.520;8.504;2022-12-18T00:33:51;9.37;;;5.83;;
13435;SDS011;6790;49.520;8.504;2022-12-18T00:36:24;8.50;;;4.57;;
13435;SDS011;6790;49.520;8.504;2022-12-18T00:38:53;8.10;;;7.27;;
13435;SDS011;6790;49.520;8.504;2022-12-18T00:41:21;12.20;;;7.10;;
13435;SDS011;6790;49.520;8.504;2022-12-18T00:44:06;18.90;;;6.03;;
13435;SDS011;6790;49.520;8.504;2022-12-18T00:46:35;14.90;;;7.60;;
13435;SDS011;6790;49.520;8.504;2022-12-18T00:49:01;17.37;;;7.77;;
13435;SDS011;6790;49.520;8.504;2022-12-18T00:51:28;17.73;;;8.47;;
13435;SDS011;6790;49.520;8.504;2022-12-18T00:53:54;9.57;;;5.63;;
13435;SDS011;6790;49.520;8.504;2022-12-18T00:56:19;13.87;;;7.53;;
13435;SDS011;6790;49.520;8.504;2022-12-18T00:58:45;12.13;;;5.07;;
13435;SDS011;6790;49.520;8.504;2022-12-18T01:01:11;16.00;;;7.70;;
13435;SDS011;6790;49.520;8.504;2022-12-18T01:03:36;13.97;;;9.17;;
13435;SDS011;6790;49.520;8.504;2022-12-18T01:06:06;13.80;;;7.33;;
13435;SDS011;6790;49.520;8.504;2022-12-18T01:08:33;8.00;;;5.77;;
13435;SDS011;6790;49.520;8.504;2022-12-18T01:10:59;16.27;;;6.70;;
13435;SDS011;6790;49.520;8.504;2022-12-18T01:13:26;18.03;;;8.03;;
13435;SDS011;6790;49.520;8.504;2022-12-18T01:15:52;8.53;;;5.37;;
13435;SDS011;6790;49.520;8.504;2022-12-18T01:18:18;11.87;;;8.80;;
13435;SDS011;6790;49.520;8.504;2022-12-18T01:20:44;9.27;;;5.43;;
13435;SDS011;6790;49.520;8.504;2022-12-18T01:23:09;18.60;;;8.73;;
13435;SDS011;6790;49.520;8.504;2022-12-18T01:25:35;7.90;;;6.10;;
13435;SDS011;6790;49.520;8.504;2022-12-18T01:28:02;21.80;;;6.37;;
13435;SDS011;6790;49.520;8.504;2022-12-18T01:30:28;12.63;;;6.80;;
13435;SDS011;6790;49.520;8.504;2022-12-18T01:32:53;17.83;;;4.67;;
13435;SDS011;6790;49.520;8.504;2022-12-18T01:35:19;8.07;;;5.13;;
13435;SDS011;6790;49.520;8.504;2022-12-18T01:37:45;14.03;;;6.50;;
13435;SDS011;6790;49.520;8.504;2022-12-18T01:40:11;15.30;;;8.10;;
13435;SDS011;6790;49.520;8.504;2022-12-18T01:42:37;18.30;;;9.23;;
13435;SDS011;6790;49.520;8.504;2022-12-18T01:47:52;5.73;;;5.13;;
13435;SDS011;6790;49.520;8.504;2022-12-18T01:50:32;9.33;;;5.13;;
13435;SDS011;6790;49.520;8.504;2022-12-18T01:53:10;12.23;;;6.93;;
13435;SDS011;6790;49.520;8.504;2022-12-18T01:55:42;11.57;;;5.67;;
13435;SDS011;6790;49.520;8.504;2022-12-18T01:58:12;11.80;;;6.67;;
13435;SDS011;6790;49.520;8.504;2022-12-18T02:00:39;10.50;;;6.53;;
13435;SDS011;6790;49.520;8.504;2022-12-18T02:03:05;15.70;;;7.70;;
13435;SDS011;6790;49.520;8.504;2022-12-18T02:08:08;9.57;;;6.73;;
13435;SDS011;6790;49.520;8.504;2022-12-18T02:11:11;7.27;;;5.70;;
13435;SDS011;6790;49.520;8.504;2022-12-18T02:16:32;19.90;;;8.27;;
13435;SDS011;6790;49.520;8.504;2022-12-18T02:19:34;14.73;;;9.23;;
13435;SDS011;6790;49.520;8.504;2022-12-18T02:28:31;7.13;;;6.13;;
13435;SDS011;6790;49.520;8.504;2022-12-18T02:33:30;9.80;;;5.07;;
13435;SDS011;6790;49.520;8.504;2022-12-18T02:35:58;11.17;;;7.30;;
13435;SDS011;6790;49.520;8.504;2022-12-18T02:38:26;14.10;;;4.57;;
13435;SDS011;6790;49.520;8.504;2022-12-18T02:40:53;10.93;;;6.63;;
13435;SDS011;6790;49.520;8.504;2022-12-18T02:43:19;4.03;;;3.73;;
13435;SDS011;6790;49.520;8.504;2022-12-18T02:45:46;11.70;;;6.50;;
13435;SDS011;6790;49.520;8.504;2022-12-18T02:48:24;13.60;;;6.00;;
13435;SDS011;6790;49.520;8.504;2022-12-18T02:54:36;13.07;;;5.77;;
13435;SDS011;6790;49.520;8.504;2022-12-18T03:00:04;7.50;;;6.03;;
13435;SDS011;6790;49.520;8.504;2022-12-18T03:06:21;3.20;;;2.90;;
13435;SDS011;6790;49.520;8.504;2022-12-18T03:08:53;11.97;;;5.10;;
13435;SDS011;6790;49.520;8.504;2022-12-18T03:11:24;12.90;;;6.53;;
13435;SDS011;6790;49.520;8.504;2022-12-18T03:14:12;10.47;;;5.53;;
13435;SDS011;6790;49.520;8.504;2022-12-18T03:16:41;8.63;;;4.70;;
13435;SDS011;6790;49.520;8.504;2022-12-18T03:19:11;9.63;;;4.97;;
13435;SDS011;6790;49.520;8.504;2022-12-18T03:21:45;6.13;;;5.37;;
13435;SDS011;6790;49.520;8.504;2022-12-18T03:24:15;10.60;;;6.37;;
13435;SDS011;6790;49.520;8.504;2022-12-18T03:26:44;8.40;;;5.50;;
13435;SDS011;6790;49.520;8.504;2022-12-18T03:29:17;5.97;;;5.13;;
13435;SDS011;6790;49.520;8.504;2022-12-18T03:31:54;10.30;;;7.10;;
13435;SDS011;6790;49.520;8.504;2022-12-18T03:34:29;5.40;;;4.30;;
13435;SDS011;6790;49.520;8.504;2022-12-18T03:36:58;9.10;;;6.97;;
13435;SDS011;6790;49.520;8.504;2022-12-18T03:39:24;7.57;;;6.63;;
13435;SDS011;6790;49.520;8.504;2022-12-18T03:44:52;11.00;;;4.67;;
13435;SDS011;6790;49.520;8.504;2022-12-18T03:47:40;8.53;;;6.03;;
13435;SDS011;6790;49.520;8.504;2022-12-18T03:50:35;12.83;;;5.93;;
13435;SDS011;6790;49.520;8.504;2022-12-18T03:56:07;12.10;;;7.57;;
13435;SDS011;6790;49.520;8.504;2022-12-18T03:58:34;13.77;;;7.63;;
13435;SDS011;6790;49.520;8.504;2022-12-18T04:01:05;11.43;;;6.57;;
13435;SDS011;6790;49.520;8.504;2022-12-18T04:03:35;7.27;;;5.70;;
13435;SDS011;6790;49.520;8.504;2022-12-18T04:06:01;21.47;;;7.73;;
13435;SDS011;6790;49.520;8.504;2022-12-18T04:08:28;6.57;;;5.17;;
13435;SDS011;6790;49.520;8.504;2022-12-18T04:10:54;9.80;;;5.07;;
13435;SDS011;6790;49.520;8.504;2022-12-18T04:13:24;6.23;;;5.53;;
13435;SDS011;6790;49.520;8.504;2022-12-18T04:15:53;16.20;;;8.63;;
13435;SDS011;6790;49.520;8.504;2022-12-18T04:18:19;11.73;;;6.23;;
13435;SDS011;6790;49.520;8.504;2022-12-18T04:20:45;16.47;;;7.97;;
13435;SDS011;6790;49.520;8.504;2022-12-18T04:23:10;11.47;;;5.33;;
13435;SDS011;6790;49.520;8.504;2022-12-18T04:25:36;27.53;;;6.70;;
13435;SDS011;6790;49.520;8.504;2022-12-18T04:28:02;11.63;;;6.17;;
13435;SDS011;6790;49.520;8.504;2022-12-18T04:30:28;11.00;;;5.80;;
13435;SDS011;6790;49.520;8.504;2022-12-18T04:32:53;17.93;;;9.50;;
13435;SDS011;6790;49.520;8.504;2022-12-18T04:35:19;12.77;;;7.87;;
13435;SDS011;6790;49.520;8.504;2022-12-18T04:37:45;35.53;;;6.53;;
13435;SDS011;6790;49.520;8.504;2022-12-18T04:40:10;9.30;;;6.90;;
13435;SDS011;6790;49.520;8.504;2022-12-18T04:42:37;15.90;;;6.57;;
13435;SDS011;6790;49.520;8.504;2022-12-18T04:45:04;20.70;;;6.70;;
13435;SDS011;6790;49.520;8.504;2022-12-18T04:47:30;13.03;;;6.57;;
13435;SDS011;6790;49.520;8.504;2022-12-18T04:49:56;8.03;;;5.07;;
13435;SDS011;6790;49.520;8.504;2022-12-18T04:52:21;11.77;;;6.37;;
13435;SDS011;6790;49.520;8.504;2022-12-18T04:54:47;6.27;;;5.03;;
13435;SDS011;6790;49.520;8.504;2022-12-18T04:57:13;11.30;;;6.30;;
13435;SDS011;6790;49.520;8.504;2022-12-18T04:59:39;10.63;;;4.80;;
13435;SDS011;6790;49.520;8.504;2022-12-18T05:02:04;9.23;;;7.17;;
13435;SDS011;6790;49.520;8.504;2022-12-18T05:04:30;9.63;;;7.20;;
13435;SDS011;6790;49.520;8.504;2022-12-18T05:06:56;12.93;;;7.40;;
13435;SDS011;6790;49.520;8.504;2022-12-18T05:09:22;7.97;;;6.77;;
13435;SDS011;6790;49.520;8.504;2022-12-18T05:11:48;7.67;;;5.93;;
13435;SDS011;6790;49.520;8.504;2022-12-18T05:14:14;5.80;;;4.50;;
13435;SDS011;6790;49.520;8.504;2022-12-18T05:16:39;23.87;;;9.60;;
13435;SDS011;6790;49.520;8.504;2022-12-18T05:19:05;16.67;;;8.00;;
13435;SDS011;6790;49.520;8.504;2022-12-18T05:21:31;9.60;;;6.67;;
13435;SDS011;6790;49.520;8.504;2022-12-18T05:23:56;9.67;;;6.43;;
13435;SDS011;6790;49.520;8.504;2022-12-18T05:26:22;11.97;;;6.17;;
13435;SDS011;6790;49.520;8.504;2022-12-18T05:28:48;21.50;;;6.33;;
13435;SDS011;6790;49.520;8.504;2022-12-18T05:31:13;9.60;;;4.27;;
13435;SDS011;6790;49.520;8.504;2022-12-18T05:33:39;11.37;;;6.20;;
13435;SDS011;6790;49.520;8.504;2022-12-18T05:36:06;9.70;;;6.30;;
13435;SDS011;6790;49.520;8.504;2022-12-18T05:38:34;10.87;;;7.27;;
13435;SDS011;6790;49.520;8.504;2022-12-18T05:41:02;22.77;;;9.40;;
13435;SDS011;6790;49.520;8.504;2022-12-18T05:43:29;27.67;;;9.20;;
13435;SDS011;6790;49.520;8.504;2022-12-18T05:45:55;17.43;;;8.57;;
13435;SDS011;6790;49.520;8.504;2022-12-18T05:48:21;12.83;;;7.07;;
13435;SDS011;6790;49.520;8.504;2022-12-18T05:50:48;8.57;;;5.43;;
13435;SDS011;6790;49.520;8.504;2022-12-18T05:53:16;14.97;;;5.77;;
13435;SDS011;6790;49.520;8.504;2022-12-18T05:55:44;16.33;;;9.37;;
13435;SDS011;6790;49.520;8.504;2022-12-18T05:58:11;16.17;;;7.50;;
13435;SDS011;6790;49.520;8.504;2022-12-18T06:00:39;8.20;;;5.87;;
13435;SDS011;6790;49.520;8.504;2022-12-18T06:03:08;13.33;;;7.07;;
13435;SDS011;6790;49.520;8.504;2022-12-18T06:05:36;9.33;;;6.13;;
13435;SDS011;6790;49.520;8.504;2022-12-18T06:08:04;9.13;;;6.30;;
13435;SDS011;6790;49.520;8.504;2022-12-18T06:10:30;11.60;;;5.17;;
13435;SDS011;6790;49.520;8.504;2022-12-18T06:12:57;15.10;;;5.27;;
13435;SDS011;6790;49.520;8.504;2022-12-18T06:15:22;15.80;;;7.87;;
13435;SDS011;6790;49.520;8.504;2022-12-18T06:17:49;10.77;;;5.87;;
13435;SDS011;6790;49.520;8.504;2022-12-18T06:20:15;14.77;;;7.20;;
13435;SDS011;6790;49.520;8.504;2022-12-18T06:22:40;20.23;;;8.13;;
13435;SDS011;6790;49.520;8.504;2022-12-18T06:25:06;15.70;;;6.00;;
13435;SDS011;6790;49.520;8.504;2022-12-18T06:27:32;13.07;;;7.37;;
13435;SDS011;6790;49.520;8.504;2022-12-18T06:29:58;8.27;;;5.70;;
13435;SDS011;6790;49.520;8.504;2022-12-18T06:32:25;25.50;;;10.70;;
13435;SDS011;6790;49.520;8.504;2022-12-18T06:34:51;15.23;;;7.70;;
13435;SDS011;6790;49.520;8.504;2022-12-18T06:37:18;7.17;;;5.83;;
13435;SDS011;6790;49.520;8.504;2022-12-18T06:39:44;14.23;;;7.43;;
13435;SDS011;6790;49.520;8.504;2022-12-18T06:42:10;22.83;;;9.73;;
13435;SDS011;6790;49.520;8.504;2022-12-18T06:44:35;16.70;;;5.57;;
13435;SDS011;6790;49.520;8.504;2022-12-18T06:47:01;13.20;;;5.83;;
13435;SDS011;6790;49.520;8.504;2022-12-18T06:49:26;8.53;;;7.00;;
13435;SDS011;6790;49.520;8.504;2022-12-18T06:51:52;15.50;;;7.70;;
13435;SDS011;6790;49.520;8.504;2022-12-18T06:54:18;15.87;;;6.70;;
13435;SDS011;6790;49.520;8.504;2022-12-18T06:56:47;20.97;;;9.50;;
13435;SDS011;6790;49.520;8.504;2022-12-18T06:59:12;13.13;;;7.03;;
13435;SDS011;6790;49.520;8.504;2022-12-18T07:01:39;11.03;;;7.43;;
13435;SDS011;6790;49.520;8.504;2022-12-18T07:04:05;13.60;;;6.53;;
13435;SDS011;6790;49.520;8.504;2022-12-18T07:06:31;19.37;;;7.80;;
13435;SDS011;6790;49.520;8.504;2022-12-18T07:08:57;18.20;;;6.37;;
13435;SDS011;6790;49.520;8.504;2022-12-18T07:11:22;7.03;;;5.13;;
13435;SDS011;6790;49.520;8.504;2022-12-18T07:13:48;13.60;;;8.30;;
13435;SDS011;6790;49.520;8.504;2022-12-18T07:16:15;15.17;;;6.43;;
13435;SDS011;6790;49.520;8.504;2022-12-18T07:18:43;6.67;;;5.80;;
13435;SDS011;6790;49.520;8.504;2022-12-18T07:21:17;16.10;;;7.23;;
13435;SDS011;6790;49.520;8.504;2022-12-18T07:23:44;14.50;;;7.40;;
13435;SDS011;6790;49.520;8.504;2022-12-18T07:26:13;30.83;;;8.50;;
13435;SDS011;6790;49.520;8.504;2022-12-18T07:28:41;3.40;;;3.10;;
13435;SDS011;6790;49.520;8.504;2022-12-18T07:31:08;8.03;;;6.97;;
13435;SDS011;6790;49.520;8.504;2022-12-18T07:33:37;18.67;;;8.33;;
13435;SDS011;6790;49.520;8.504;2022-12-18T07:36:03;18.87;;;8.87;;
13435;SDS011;6790;49.520;8.504;2022-12-18T07:38:31;7.83;;;6.87;;
13435;SDS011;6790;49.520;8.504;2022-12-18T07:41:02;20.87;;;7.17;;
13435;SDS011;6790;49.520;8.504;2022-12-18T07:43:37;8.57;;;5.87;;
13435;SDS011;6790;49.520;8.504;2022-12-18T07:46:04;11.63;;;6.40;;
13435;SDS011;6790;49.520;8.504;2022-12-18T07:48:30;9.50;;;5.23;;
13435;SDS011;6790;49.520;8.504;2022-12-18T07:50:59;6.87;;;4.73;;
13435;SDS011;6790;49.520;8.504;2022-12-18T07:53:26;13.43;;;5.47;;
13435;SDS011;6790;49.520;8.504;2022-12-18T07:55:56;8.87;;;6.97;;
13435;SDS011;6790;49.520;8.504;2022-12-18T07:58:28;23.83;;;7.73;;
13435;SDS011;6790;49.520;8.504;2022-12-18T08:01:01;16.03;;;6.73;;
13435;SDS011;6790;49.520;8.504;2022-12-18T08:03:36;11.60;;;6.73;;
13435;SDS011;6790;49.520;8.504;2022-12-18T08:06:04;7.83;;;5.57;;
13435;SDS011;6790;49.520;8.504;2022-12-18T08:08:32;12.50;;;9.33;;
13435;SDS011;6790;49.520;8.504;2022-12-18T08:10:58;16.00;;;10.00;;
13435;SDS011;6790;49.520;8.504;2022-12-18T08:13:24;14.57;;;10.13;;
13435;SDS011;6790;49.520;8.504;2022-12-18T08:16:01;13.17;;;9.07;;
13435;SDS011;6790;49.520;8.504;2022-12-18T08:18:31;11.10;;;8.10;;
13435;SDS011;6790;49.520;8.504;2022-12-18T08:21:06;15.17;;;8.80;;
13435;SDS011;6790;49.520;8.504;2022-12-18T08:23:56;18.57;;;12.80;;
13435;SDS011;6790;49.520;8.504;2022-12-18T08:26:25;7.67;;;6.37;;
13435;SDS011;6790;49.520;8.504;2022-12-18T08:28:54;20.63;;;7.33;;
13435;SDS011;6790;49.520;8.504;2022-12-18T08:31:22;23.57;;;7.37;;
13435;SDS011;6790;49.520;8.504;2022-12-18T08:33:49;19.10;;;9.87;;
13435;SDS011;6790;49.520;8.504;2022-12-18T08:36:17;10.43;;;5.87;;
13435;SDS011;6790;49.520;8.504;2022-12-18T08:38:44;15.87;;;7.20;;
13435;SDS011;6790;49.520;8.504;2022-12-18T08:41:10;16.37;;;8.03;;
13435;SDS011;6790;49.520;8.504;2022-12-18T08:43:37;20.63;;;8.97;;
13435;SDS011;6790;49.520;8.504;2022-12-18T08:46:23;10.50;;;7.53;;
13435;SDS011;6790;49.520;8.504;2022-12-18T08:48:51;9.27;;;6.37;;
13435;SDS011;6790;49.520;8.504;2022-12-18T08:51:19;9.83;;;7.10;;
13435;SDS011;6790;49.520;8.504;2022-12-18T08:53:45;17.40;;;8.50;;
13435;SDS011;6790;49.520;8.504;2022-12-18T08:56:11;12.30;;;6.03;;
13435;SDS011;6790;49.520;8.504;2022-12-18T08:58:38;19.47;;;9.20;;
13435;SDS011;6790;49.520;8.504;2022-12-18T09:01:05;13.50;;;8.50;;
13435;SDS011;6790;49.520;8.504;2022-12-18T09:03:34;9.93;;;5.37;;
13435;SDS011;6790;49.520;8.504;2022-12-18T09:06:00;13.07;;;5.53;;
13435;SDS011;6790;49.520;8.504;2022-12-18T09:08:27;9.07;;;6.23;;
13435;SDS011;6790;49.520;8.504;2022-12-18T09:10:53;8.07;;;6.90;;
13435;SDS011;6790;49.520;8.504;2022-12-18T09:13:20;21.20;;;10.90;;
13435;SDS011;6790;49.520;8.504;2022-12-18T09:15:47;12.23;;;7.33;;
13435;SDS011;6790;49.520;8.504;2022-12-18T09:18:18;24.60;;;8.23;;
13435;SDS011;6790;49.520;8.504;2022-12-18T09:20:45;22.47;;;10.67;;
13435;SDS011;6790;49.520;8.504;2022-12-18T09:23:12;9.43;;;5.80;;
13435;SDS011;6790;49.520;8.504;2022-12-18T09:25:38;11.53;;;6.53;;
13435;SDS011;6790;49.520;8.504;2022-12-18T09:28:14;10.93;;;5.63;;
13435;SDS011;6790;49.520;8.504;2022-12-18T09:30:48;11.30;;;7.37;;
13435;SDS011;6790;49.520;8.504;2022-12-18T09:33:15;24.50;;;10.00;;
13435;SDS011;6790;49.520;8.504;2022-12-18T09:35:42;22.33;;;9.83;;
13435;SDS011;6790;49.520;8.504;2022-12-18T09:38:14;16.97;;;5.73;;
13435;SDS011;6790;49.520;8.504;2022-12-18T09:40:43;13.10;;;7.83;;
13435;SDS011;6790;49.520;8.504;2022-12-18T09:43:19;16.87;;;7.23;;
13435;SDS011;6790;49.520;8.504;2022-12-18T09:45:55;20.30;;;11.57;;
13435;SDS011;6790;49.520;8.504;2022-12-18T09:48:34;19.83;;;9.30;;
13435;SDS011;6790;49.520;8.504;2022-12-18T09:51:11;16.17;;;9.03;;
13435;SDS011;6790;49.520;8.504;2022-12-18T09:53:41;10.67;;;7.93;;
13435;SDS011;6790;49.520;8.504;2022-12-18T09:56:15;20.17;;;7.10;;
13435;SDS011;6790;49.520;8.504;2022-12-18T09:58:46;19.93;;;7.43;;
13435;SDS011;6790;49.520;8.504;2022-12-18T10:01:24;18.23;;;8.77;;
13435;SDS011;6790;49.520;8.504;2022-12-18T10:03:52;17.97;;;10.67;;
13435;SDS011;6790;49.520;8.504;2022-12-18T10:06:30;19.23;;;8.27;;
13435;SDS011;6790;49.520;8.504;2022-12-18T10:09:20;14.17;;;8.60;;
13435;SDS011;6790;49.520;8.504;2022-12-18T10:21:19;10.67;;;6.90;;
13435;SDS011;6790;49.520;8.504;2022-12-18T10:26:50;17.33;;;8.57;;
13435;SDS011;6790;49.520;8.504;2022-12-18T10:29:18;17.60;;;7.53;;
13435;SDS011;6790;49.520;8.504;2022-12-18T10:31:44;21.00;;;8.57;;
13435;SDS011;6790;49.520;8.504;2022-12-18T10:34:10;20.90;;;10.73;;
13435;SDS011;6790;49.520;8.504;2022-12-18T10:36:37;33.73;;;13.80;;
13435;SDS011;6790;49.520;8.504;2022-12-18T10:39:45;33.70;;;15.90;;
13435;SDS011;6790;49.520;8.504;2022-12-18T10:41:52;34.47;;;13.73;;
13435;SDS011;6790;49.520;8.504;2022-12-18T10:44:44;20.17;;;9.77;;
13435;SDS011;6790;49.520;8.504;2022-12-18T10:47:19;43.37;;;15.73;;
13435;SDS011;6790;49.520;8.504;2022-12-18T10:49:49;28.70;;;14.07;;
13435;SDS011;6790;49.520;8.504;2022-12-18T10:52:21;38.97;;;17.20;;
13435;SDS011;6790;49.520;8.504;2022-12-18T11:00:22;40.70;;;14.90;;
13435;SDS011;6790;49.520;8.504;2022-12-18T11:02:54;22.07;;;12.70;;
13435;SDS011;6790;49.520;8.504;2022-12-18T11:05:31;31.50;;;14.53;;
13435;SDS011;6790;49.520;8.504;2022-12-18T11:07:59;32.03;;;14.53;;
13435;SDS011;6790;49.520;8.504;2022-12-18T11:10:34;31.33;;;14.07;;
13435;SDS011;6790;49.520;8.504;2022-12-18T11:13:35;23.97;;;13.47;;
13435;SDS011;6790;49.520;8.504;2022-12-18T11:15:56;33.50;;;16.50;;
13435;SDS011;6790;49.520;8.504;2022-12-18T11:18:27;20.83;;;11.70;;
13435;SDS011;6790;49.520;8.504;2022-12-18T11:20:59;40.30;;;19.57;;
13435;SDS011;6790;49.520;8.504;2022-12-18T11:23:37;23.40;;;11.10;;
13435;SDS011;6790;49.520;8.504;2022-12-18T11:26:18;29.27;;;13.33;;
13435;SDS011;6790;49.520;8.504;2022-12-18T11:28:46;28.80;;;13.43;;
13435;SDS011;6790;49.520;8.504;2022-12-18T11:36:41;26.73;;;15.00;;
13435;SDS011;6790;49.520;8.504;2022-12-18T11:39:20;41.93;;;17.30;;
13435;SDS011;6790;49.520;8.504;2022-12-18T11:44:48;29.33;;;12.37;;
13435;SDS011;6790;49.520;8.504;2022-12-18T11:50:14;33.07;;;13.57;;
13435;SDS011;6790;49.520;8.504;2022-12-18T11:52:44;24.77;;;10.93;;
13435;SDS011;6790;49.520;8.504;2022-12-18T11:55:11;29.67;;;14.07;;
13435;SDS011;6790;49.520;8.504;2022-12-18T12:00:25;35.53;;;15.13;;
13435;SDS011;6790;49.520;8.504;2022-12-18T12:03:01;36.87;;;15.33;;
13435;SDS011;6790;49.520;8.504;2022-12-18T12:06:08;29.00;;;12.03;;
13435;SDS011;6790;49.520;8.504;2022-12-18T12:09:03;32.07;;;13.43;;
13435;SDS011;6790;49.520;8.504;2022-12-18T12:20:55;25.97;;;11.13;;
13435;SDS011;6790;49.520;8.504;2022-12-18T12:26:29;25.47;;;11.33;;
13435;SDS011;6790;49.520;8.504;2022-12-18T12:32:37;22.00;;;10.77;;
13435;SDS011;6790;49.520;8.504;2022-12-18T12:38:13;28.07;;;10.17;;
13435;SDS011;6790;49.520;8.504;2022-12-18T12:40:49;29.27;;;14.63;;
13435;SDS011;6790;49.520;8.504;2022-12-18T12:46:07;22.00;;;11.67;;
13435;SDS011;6790;49.520;8.504;2022-12-18T12:48:55;18.53;;;10.57;;
13435;SDS011;6790;49.520;8.504;2022-12-18T12:51:27;22.30;;;11.83;;
13435;SDS011;6790;49.520;8.504;2022-12-18T12:53:58;27.73;;;13.70;;
13435;SDS011;6790;49.520;8.504;2022-12-18T13:05:16;22.40;;;9.83;;
13435;SDS011;6790;49.520;8.504;2022-12-18T13:07:51;29.90;;;11.90;;
13435;SDS011;6790;49.520;8.504;2022-12-18T13:10:23;41.87;;;16.43;;
13435;SDS011;6790;49.520;8.504;2022-12-18T13:13:00;31.37;;;17.33;;
13435;SDS011;6790;49.520;8.504;2022-12-18T13:15:45;38.17;;;17.30;;
13435;SDS011;6790;49.520;8.504;2022-12-18T13:20:53;31.97;;;14.73;;
13435;SDS011;6790;49.520;8.504;2022-12-18T13:23:45;25.03;;;9.30;;
13435;SDS011;6790;49.520;8.504;2022-12-18T13:31:15;34.50;;;14.07;;
13435;SDS011;6790;49.520;8.504;2022-12-18T13:36:52;18.57;;;10.97;;
13435;SDS011;6790;49.520;8.504;2022-12-18T13:41:49;31.00;;;15.43;;
13435;SDS011;6790;49.520;8.504;2022-12-18T13:47:00;36.20;;;14.33;;
13435;SDS011;6790;49.520;8.504;2022-12-18T13:49:38;24.27;;;11.83;;
13435;SDS011;6790;49.520;8.504;2022-12-18T13:52:22;17.87;;;10.87;;
13435;SDS011;6790;49.520;8.504;2022-12-18T13:54:52;16.90;;;10.87;;
13435;SDS011;6790;49.520;8.504;2022-12-18T13:57:25;35.77;;;15.57;;
13435;SDS011;6790;49.520;8.504;2022-12-18T13:59:52;20.17;;;10.73;;
13435;SDS011;6790;49.520;8.504;2022-12-18T14:02:23;30.47;;;14.50;;
13435;SDS011;6790;49.520;8.504;2022-12-18T14:04:52;36.57;;;11.50;;
13435;SDS011;6790;49.520;8.504;2022-12-18T14:07:19;27.40;;;13.97;;
13435;SDS011;6790;49.520;8.504;2022-12-18T14:09:49;18.03;;;10.60;;
13435;SDS011;6790;49.520;8.504;2022-12-18T14:12:32;22.73;;;10.53;;
13435;SDS011;6790;49.520;8.504;2022-12-18T14:17:51;28.07;;;13.90;;
13435;SDS011;6790;49.520;8.504;2022-12-18T14:20:24;17.07;;;11.03;;
13435;SDS011;6790;49.520;8.504;2022-12-18T14:22:51;31.30;;;12.13;;
13435;SDS011;6790;49.520;8.504;2022-12-18T14:27:52;29.80;;;15.53;;
13435;SDS011;6790;49.520;8.504;2022-12-18T14:30:39;27.37;;;13.00;;
13435;SDS011;6790;49.520;8.504;2022-12-18T14:33:11;26.60;;;12.57;;
13435;SDS011;6790;49.520;8.504;2022-12-18T14:35:52;23.10;;;11.20;;
13435;SDS011;6790;49.520;8.504;2022-12-18T14:38:23;28.93;;;13.07;;
13435;SDS011;6790;49.520;8.504;2022-12-18T14:41:00;30.03;;;11.73;;
13435;SDS011;6790;49.520;8.504;2022-12-18T14:43:31;39.60;;;18.20;;
13435;SDS011;6790;49.520;8.504;2022-12-18T14:46:00;26.57;;;14.83;;
13435;SDS011;6790;49.520;8.504;2022-12-18T14:48:38;22.80;;;14.63;;
13435;SDS011;6790;49.520;8.504;2022-12-18T14:54:01;35.20;;;18.00;;
13435;SDS011;6790;49.520;8.504;2022-12-18T14:56:36;34.53;;;14.30;;
13435;SDS011;6790;49.520;8.504;2022-12-18T14:59:28;32.37;;;22.13;;
13435;SDS011;6790;49.520;8.504;2022-12-18T15:01:59;69.10;;;51.97;;
13435;SDS011;6790;49.520;8.504;2022-12-18T15:04:43;49.57;;;27.77;;
13435;SDS011;6790;49.520;8.504;2022-12-18T15:07:20;24.47;;;17.10;;
13435;SDS011;6790;49.520;8.504;2022-12-18T15:12:45;18.30;;;8.47;;
13435;SDS011;6790;49.520;8.504;2022-12-18T15:18:02;20.33;;;8.87;;
13435;SDS011;6790;49.520;8.504;2022-12-18T15:23:24;29.17;;;14.53;;
13435;SDS011;6790;49.520;8.504;2022-12-18T15:26:04;25.97;;;12.70;;
13435;SDS011;6790;49.520;8.504;2022-12-18T15:31:04;22.90;;;11.17;;
13435;SDS011;6790;49.520;8.504;2022-12-18T15:36:18;27.50;;;14.50;;
13435;SDS011;6790;49.520;8.504;2022-12-18T15:38:47;28.47;;;12.70;;
13435;SDS011;6790;49.520;8.504;2022-12-18T15:41:15;23.53;;;10.00;;
13435;SDS011;6790;49.520;8.504;2022-12-18T15:43:44;16.53;;;10.40;;
13435;SDS011;6790;49.520;8.504;2022-12-18T15:46:12;14.23;;;8.90;;
13435;SDS011;6790;49.520;8.504;2022-12-18T15:48:41;26.40;;;8.60;;
13435;SDS011;6790;49.520;8.504;2022-12-18T15:51:13;19.07;;;9.70;;
13435;SDS011;6790;49.520;8.504;2022-12-18T15:53:46;24.33;;;10.47;;
13435;SDS011;6790;49.520;8.504;2022-12-18T15:56:14;13.83;;;9.20;;
13435;SDS011;6790;49.520;8.504;2022-12-18T15:58:59;15.73;;;9.60;;
13435;SDS011;6790;49.520;8.504;2022-12-18T16:01:27;26.87;;;11.97;;
13435;SDS011;6790;49.520;8.504;2022-12-18T16:03:55;17.57;;;9.30;;
13435;SDS011;6790;49.520;8.504;2022-12-18T16:06:21;15.37;;;8.30;;
13435;SDS011;6790;49.520;8.504;2022-12-18T16:08:47;28.57;;;14.30;;
13435;SDS011;6790;49.520;8.504;2022-12-18T16:11:24;20.00;;;11.30;;
13435;SDS011;6790;49.520;8.504;2022-12-18T16:16:46;27.63;;;15.33;;
13435;SDS011;6790;49.520;8.504;2022-12-18T16:19:14;23.93;;;14.10;;
13435;SDS011;6790;49.520;8.504;2022-12-18T16:21:41;13.73;;;7.67;;
13435;SDS011;6790;49.520;8.504;2022-12-18T16:24:11;17.87;;;9.87;;
13435;SDS011;6790;49.520;8.504;2022-12-18T16:26:49;14.00;;;7.20;;
13435;SDS011;6790;49.520;8.504;2022-12-18T16:29:17;13.60;;;7.20;;
13435;SDS011;6790;49.520;8.504;2022-12-18T16:31:43;12.27;;;8.50;;
13435;SDS011;6790;49.520;8.504;2022-12-18T16:34:30;22.40;;;13.50;;
13435;SDS011;6790;49.520;8.504;2022-12-18T16:37:00;18.40;;;9.57;;
13435;SDS011;6790;49.520;8.504;2022-12-18T16:39:28;16.90;;;9.23;;
13435;SDS011;6790;49.520;8.504;2022-12-18T16:41:55;22.57;;;13.00;;
13435;SDS011;6790;49.520;8.504;2022-12-18T16:44:22;26.10;;;11.37;;
13435;SDS011;6790;49.520;8.504;2022-12-18T16:46:47;27.43;;;13.00;;
13435;SDS011;6790;49.520;8.504;2022-12-18T16:49:14;11.37;;;7.43;;
13435;SDS011;6790;49.520;8.504;2022-12-18T16:51:42;15.50;;;9.63;;
13435;SDS011;6790;49.520;8.504;2022-12-18T16:54:09;24.77;;;12.50;;
13435;SDS011;6790;49.520;8.504;2022-12-18T16:56:35;26.20;;;12.57;;
13435;SDS011;6790;49.520;8.504;2022-12-18T16:59:01;18.37;;;9.30;;
13435;SDS011;6790;49.520;8.504;2022-12-18T17:01:28;28.37;;;13.43;;
13435;SDS011;6790;49.520;8.504;2022-12-18T17:03:59;23.93;;;11.30;;
13435;SDS011;6790;49.520;8.504;2022-12-18T17:06:29;36.23;;;16.37;;
13435;SDS011;6790;49.520;8.504;2022-12-18T17:08:57;18.13;;;10.87;;
13435;SDS011;6790;49.520;8.504;2022-12-18T17:11:25;25.97;;;11.57;;
13435;SDS011;6790;49.520;8.504;2022-12-18T17:13:52;18.77;;;9.60;;
13435;SDS011;6790;49.520;8.504;2022-12-18T17:16:18;17.00;;;9.73;;
13435;SDS011;6790;49.520;8.504;2022-12-18T17:18:44;25.47;;;13.70;;
13435;SDS011;6790;49.520;8.504;2022-12-18T17:21:10;25.37;;;13.17;;
13435;SDS011;6790;49.520;8.504;2022-12-18T17:23:38;41.97;;;18.30;;